KDAL

Dallas Love Field Airport

Dallas, Texas, USA
METAR KDAL 230253Z 13011KT 10SM FEW250 SCT300 27/20 A2996 RMK AO2 SLP138 T02720200 52015
Observed Flight Rules
May-23 @ 02:53 UTC (22 minutes ago) Visual Flight Rules
Wind Visibility Clouds
130° at 11 knots 10 miles
  • Few at 25,000' AGL
  • Scattered at 30,000' AGL
Temperatures Readings
Current 27°C / 81°F
Dewpoint 20°C / 68°F
Humidity 66%
Altimeter 29.96" Hg
Pressure 1013.8 hPa
Elevation 158
METAR KDAL 230253Z 13011KT 10SM FEW250 SCT300 27/20 A2996 RMK AO2 SLP138 T02720200 52015
Observed Flight Rules
May-23 @ 02:53 UTC
(22 minutes ago)
VFR
Wind Visibility
130° at 11 knots 10 miles
Clouds
  • Few at 25,000' AGL
  • Scattered at 30,000' AGL
Temperature Dewpoint
27°C / 81°F 20°C / 68°F
Humidity Altimeter Pressure
66% 29.96" Hg 1013.8 hPa